sensor_id;sensor_type;location;lat;lon;timestamp;temperature;humidity
1686;DHT22;840;47.980;7.830;2022-08-14T00:02:16;24.50;43.10
1686;DHT22;840;47.980;7.830;2022-08-14T00:04:42;24.50;43.50
1686;DHT22;840;47.980;7.830;2022-08-14T00:07:10;24.40;43.10
1686;DHT22;840;47.980;7.830;2022-08-14T00:09:37;24.40;43.20
1686;DHT22;840;47.980;7.830;2022-08-14T00:12:05;24.50;43.00
1686;DHT22;840;47.980;7.830;2022-08-14T00:14:33;24.50;42.20
1686;DHT22;840;47.980;7.830;2022-08-14T00:17:00;24.50;42.60
1686;DHT22;840;47.980;7.830;2022-08-14T00:19:27;24.50;42.90
1686;DHT22;840;47.980;7.830;2022-08-14T00:21:54;24.50;42.50
1686;DHT22;840;47.980;7.830;2022-08-14T00:24:22;24.50;43.30
1686;DHT22;840;47.980;7.830;2022-08-14T00:26:48;24.50;43.60
1686;DHT22;840;47.980;7.830;2022-08-14T00:29:16;24.50;43.80
1686;DHT22;840;47.980;7.830;2022-08-14T00:31:44;24.50;43.60
1686;DHT22;840;47.980;7.830;2022-08-14T00:34:11;24.40;43.60
1686;DHT22;840;47.980;7.830;2022-08-14T00:36:37;24.30;44.00
1686;DHT22;840;47.980;7.830;2022-08-14T00:39:05;24.20;44.50
1686;DHT22;840;47.980;7.830;2022-08-14T00:41:32;24.10;44.80
1686;DHT22;840;47.980;7.830;2022-08-14T00:43:59;24.10;45.00
1686;DHT22;840;47.980;7.830;2022-08-14T00:46:26;24.10;45.30
1686;DHT22;840;47.980;7.830;2022-08-14T00:48:54;24.00;45.60
1686;DHT22;840;47.980;7.830;2022-08-14T00:51:20;24.00;45.60
1686;DHT22;840;47.980;7.830;2022-08-14T00:53:48;23.90;45.80
1686;DHT22;840;47.980;7.830;2022-08-14T00:56:16;23.80;45.60
1686;DHT22;840;47.980;7.830;2022-08-14T00:58:43;23.70;45.80
1686;DHT22;840;47.980;7.830;2022-08-14T01:01:12;23.70;46.20
1686;DHT22;840;47.980;7.830;2022-08-14T01:03:41;23.60;46.10
1686;DHT22;840;47.980;7.830;2022-08-14T01:06:11;23.60;46.20
1686;DHT22;840;47.980;7.830;2022-08-14T01:08:39;23.50;46.80
1686;DHT22;840;47.980;7.830;2022-08-14T01:11:07;23.50;47.00
1686;DHT22;840;47.980;7.830;2022-08-14T01:13:36;23.40;47.10
1686;DHT22;840;47.980;7.830;2022-08-14T01:16:06;23.30;46.90
1686;DHT22;840;47.980;7.830;2022-08-14T01:18:34;23.20;47.00
1686;DHT22;840;47.980;7.830;2022-08-14T01:21:22;23.20;47.10
1686;DHT22;840;47.980;7.830;2022-08-14T01:23:51;23.00;47.30
1686;DHT22;840;47.980;7.830;2022-08-14T01:26:20;22.90;47.60
1686;DHT22;840;47.980;7.830;2022-08-14T01:28:49;22.80;47.90
1686;DHT22;840;47.980;7.830;2022-08-14T01:31:21;22.80;48.40
1686;DHT22;840;47.980;7.830;2022-08-14T01:33:51;22.70;48.80
1686;DHT22;840;47.980;7.830;2022-08-14T01:36:19;22.60;49.00
1686;DHT22;840;47.980;7.830;2022-08-14T01:38:48;22.60;49.20
1686;DHT22;840;47.980;7.830;2022-08-14T01:41:18;22.60;49.20
1686;DHT22;840;47.980;7.830;2022-08-14T01:43:48;22.50;49.50
1686;DHT22;840;47.980;7.830;2022-08-14T01:46:16;22.50;49.60
1686;DHT22;840;47.980;7.830;2022-08-14T01:48:45;22.50;50.00
1686;DHT22;840;47.980;7.830;2022-08-14T01:51:14;22.40;50.00
1686;DHT22;840;47.980;7.830;2022-08-14T01:53:44;22.30;50.20
1686;DHT22;840;47.980;7.830;2022-08-14T01:56:15;22.30;50.50
1686;DHT22;840;47.980;7.830;2022-08-14T01:58:43;22.20;50.60
1686;DHT22;840;47.980;7.830;2022-08-14T02:01:13;22.20;50.70
1686;DHT22;840;47.980;7.830;2022-08-14T02:03:41;22.10;50.80
1686;DHT22;840;47.980;7.830;2022-08-14T02:06:09;22.10;50.90
1686;DHT22;840;47.980;7.830;2022-08-14T02:08:37;22.00;51.10
1686;DHT22;840;47.980;7.830;2022-08-14T02:11:06;21.90;51.30
1686;DHT22;840;47.980;7.830;2022-08-14T02:13:46;21.90;51.40
1686;DHT22;840;47.980;7.830;2022-08-14T02:16:15;21.90;51.50
1686;DHT22;840;47.980;7.830;2022-08-14T02:18:42;21.80;51.40
1686;DHT22;840;47.980;7.830;2022-08-14T02:21:10;21.80;51.50
1686;DHT22;840;47.980;7.830;2022-08-14T02:23:39;21.70;51.80
1686;DHT22;840;47.980;7.830;2022-08-14T02:26:15;21.60;51.70
1686;DHT22;840;47.980;7.830;2022-08-14T02:28:43;21.60;52.00
1686;DHT22;840;47.980;7.830;2022-08-14T02:31:11;21.60;52.40
1686;DHT22;840;47.980;7.830;2022-08-14T02:33:38;21.50;52.30
1686;DHT22;840;47.980;7.830;2022-08-14T02:36:07;21.50;53.30
1686;DHT22;840;47.980;7.830;2022-08-14T02:38:34;21.50;52.60
1686;DHT22;840;47.980;7.830;2022-08-14T02:41:02;21.50;52.60
1686;DHT22;840;47.980;7.830;2022-08-14T02:43:30;21.50;52.80
1686;DHT22;840;47.980;7.830;2022-08-14T02:45:58;21.40;52.70
1686;DHT22;840;47.980;7.830;2022-08-14T02:48:25;21.40;52.70
1686;DHT22;840;47.980;7.830;2022-08-14T02:50:56;21.30;52.80
1686;DHT22;840;47.980;7.830;2022-08-14T02:53:23;21.30;53.10
1686;DHT22;840;47.980;7.830;2022-08-14T02:55:49;21.20;53.10
1686;DHT22;840;47.980;7.830;2022-08-14T02:58:16;21.10;53.20
1686;DHT22;840;47.980;7.830;2022-08-14T03:00:45;21.10;53.20
1686;DHT22;840;47.980;7.830;2022-08-14T03:03:14;21.10;53.50
1686;DHT22;840;47.980;7.830;2022-08-14T03:05:42;21.10;53.70
1686;DHT22;840;47.980;7.830;2022-08-14T03:08:11;21.00;53.60
1686;DHT22;840;47.980;7.830;2022-08-14T03:10:38;21.00;53.40
1686;DHT22;840;47.980;7.830;2022-08-14T03:13:05;21.00;53.40
1686;DHT22;840;47.980;7.830;2022-08-14T03:15:32;21.00;53.20
1686;DHT22;840;47.980;7.830;2022-08-14T03:18:02;21.00;53.20
1686;DHT22;840;47.980;7.830;2022-08-14T03:20:31;21.00;53.20
1686;DHT22;840;47.980;7.830;2022-08-14T03:22:59;21.00;53.40
1686;DHT22;840;47.980;7.830;2022-08-14T03:25:26;20.90;53.50
1686;DHT22;840;47.980;7.830;2022-08-14T03:27:58;20.90;53.70
1686;DHT22;840;47.980;7.830;2022-08-14T03:30:28;20.90;53.80
1686;DHT22;840;47.980;7.830;2022-08-14T03:32:55;20.80;53.90
1686;DHT22;840;47.980;7.830;2022-08-14T03:35:23;20.80;53.70
1686;DHT22;840;47.980;7.830;2022-08-14T03:37:51;20.80;53.60
1686;DHT22;840;47.980;7.830;2022-08-14T03:40:19;20.80;53.60
1686;DHT22;840;47.980;7.830;2022-08-14T03:42:46;20.80;52.90
1686;DHT22;840;47.980;7.830;2022-08-14T03:45:13;20.70;52.50
1686;DHT22;840;47.980;7.830;2022-08-14T03:47:40;20.70;52.40
1686;DHT22;840;47.980;7.830;2022-08-14T03:50:08;20.70;52.70
1686;DHT22;840;47.980;7.830;2022-08-14T03:52:37;20.70;53.10
1686;DHT22;840;47.980;7.830;2022-08-14T03:55:07;20.70;53.40
1686;DHT22;840;47.980;7.830;2022-08-14T03:57:36;20.60;53.30
1686;DHT22;840;47.980;7.830;2022-08-14T04:00:05;20.50;53.90
1686;DHT22;840;47.980;7.830;2022-08-14T04:02:33;20.50;54.20
1686;DHT22;840;47.980;7.830;2022-08-14T04:05:00;20.40;54.20
1686;DHT22;840;47.980;7.830;2022-08-14T04:07:27;20.40;54.40
1686;DHT22;840;47.980;7.830;2022-08-14T04:09:54;20.30;54.60
1686;DHT22;840;47.980;7.830;2022-08-14T04:12:23;20.30;54.90
1686;DHT22;840;47.980;7.830;2022-08-14T04:14:49;20.30;54.80
1686;DHT22;840;47.980;7.830;2022-08-14T04:17:17;20.20;55.40
1686;DHT22;840;47.980;7.830;2022-08-14T04:19:44;20.20;55.10
1686;DHT22;840;47.980;7.830;2022-08-14T04:22:10;20.20;55.50
1686;DHT22;840;47.980;7.830;2022-08-14T04:24:38;20.20;55.70
1686;DHT22;840;47.980;7.830;2022-08-14T04:27:06;20.10;55.80
1686;DHT22;840;47.980;7.830;2022-08-14T04:29:37;20.10;55.70
1686;DHT22;840;47.980;7.830;2022-08-14T04:32:05;20.10;55.80
1686;DHT22;840;47.980;7.830;2022-08-14T04:34:33;20.10;55.80
1686;DHT22;840;47.980;7.830;2022-08-14T04:37:00;20.10;56.00
1686;DHT22;840;47.980;7.830;2022-08-14T04:39:44;20.00;56.10
1686;DHT22;840;47.980;7.830;2022-08-14T04:42:28;20.00;56.30
1686;DHT22;840;47.980;7.830;2022-08-14T04:45:14;20.00;56.40
1686;DHT22;840;47.980;7.830;2022-08-14T04:47:43;20.00;56.40
1686;DHT22;840;47.980;7.830;2022-08-14T04:50:43;19.90;56.50
1686;DHT22;840;47.980;7.830;2022-08-14T04:53:16;19.90;56.80
1686;DHT22;840;47.980;7.830;2022-08-14T04:55:44;19.90;56.30
1686;DHT22;840;47.980;7.830;2022-08-14T04:58:12;19.90;57.10
1686;DHT22;840;47.980;7.830;2022-08-14T05:00:40;19.90;56.60
1686;DHT22;840;47.980;7.830;2022-08-14T05:03:10;19.90;56.40
1686;DHT22;840;47.980;7.830;2022-08-14T05:05:37;20.00;57.30
1686;DHT22;840;47.980;7.830;2022-08-14T05:08:06;20.00;57.00
1686;DHT22;840;47.980;7.830;2022-08-14T05:10:37;20.00;57.00
1686;DHT22;840;47.980;7.830;2022-08-14T05:13:05;20.00;57.30
1686;DHT22;840;47.980;7.830;2022-08-14T05:15:33;20.00;57.20
1686;DHT22;840;47.980;7.830;2022-08-14T05:18:06;20.00;57.40
1686;DHT22;840;47.980;7.830;2022-08-14T05:20:35;20.00;57.10
1686;DHT22;840;47.980;7.830;2022-08-14T05:23:02;20.10;56.80
1686;DHT22;840;47.980;7.830;2022-08-14T05:25:29;20.10;57.40
1686;DHT22;840;47.980;7.830;2022-08-14T05:27:56;20.10;57.10
1686;DHT22;840;47.980;7.830;2022-08-14T05:30:25;20.20;57.00
1686;DHT22;840;47.980;7.830;2022-08-14T05:32:51;20.20;55.60
1686;DHT22;840;47.980;7.830;2022-08-14T05:35:20;20.20;55.20
1686;DHT22;840;47.980;7.830;2022-08-14T05:37:47;20.20;54.50
1686;DHT22;840;47.980;7.830;2022-08-14T05:40:14;20.30;52.70
1686;DHT22;840;47.980;7.830;2022-08-14T05:42:41;20.40;52.00
1686;DHT22;840;47.980;7.830;2022-08-14T05:45:08;20.40;53.20
1686;DHT22;840;47.980;7.830;2022-08-14T05:47:38;20.50;54.30
1686;DHT22;840;47.980;7.830;2022-08-14T05:50:08;20.50;54.50
1686;DHT22;840;47.980;7.830;2022-08-14T05:52:36;20.60;54.60
1686;DHT22;840;47.980;7.830;2022-08-14T05:55:04;20.70;54.50
1686;DHT22;840;47.980;7.830;2022-08-14T05:57:31;20.80;53.70
1686;DHT22;840;47.980;7.830;2022-08-14T05:59:58;20.80;53.60
1686;DHT22;840;47.980;7.830;2022-08-14T06:02:25;20.90;53.60
1686;DHT22;840;47.980;7.830;2022-08-14T06:04:51;20.90;53.90
1686;DHT22;840;47.980;7.830;2022-08-14T06:07:18;21.00;54.00
1686;DHT22;840;47.980;7.830;2022-08-14T06:09:46;21.00;54.30
1686;DHT22;840;47.980;7.830;2022-08-14T06:12:13;21.10;54.50
1686;DHT22;840;47.980;7.830;2022-08-14T06:14:40;21.10;54.10
1686;DHT22;840;47.980;7.830;2022-08-14T06:17:07;21.00;54.50
1686;DHT22;840;47.980;7.830;2022-08-14T06:19:34;21.00;54.70
1686;DHT22;840;47.980;7.830;2022-08-14T06:22:01;21.10;55.30
1686;DHT22;840;47.980;7.830;2022-08-14T06:24:28;21.10;55.10
1686;DHT22;840;47.980;7.830;2022-08-14T06:26:56;21.20;55.20
1686;DHT22;840;47.980;7.830;2022-08-14T06:29:23;21.30;55.10
1686;DHT22;840;47.980;7.830;2022-08-14T06:31:50;21.40;55.20
1686;DHT22;840;47.980;7.830;2022-08-14T06:34:17;21.50;55.20
1686;DHT22;840;47.980;7.830;2022-08-14T06:36:44;21.60;55.20
1686;DHT22;840;47.980;7.830;2022-08-14T06:39:11;21.70;55.50
1686;DHT22;840;47.980;7.830;2022-08-14T06:41:38;21.80;54.80
1686;DHT22;840;47.980;7.830;2022-08-14T06:44:07;21.80;55.10
1686;DHT22;840;47.980;7.830;2022-08-14T06:46:34;21.90;55.50
1686;DHT22;840;47.980;7.830;2022-08-14T06:49:01;21.90;55.40
1686;DHT22;840;47.980;7.830;2022-08-14T06:51:28;22.00;55.50
1686;DHT22;840;47.980;7.830;2022-08-14T06:53:54;22.00;55.10
1686;DHT22;840;47.980;7.830;2022-08-14T06:56:21;22.00;55.10
1686;DHT22;840;47.980;7.830;2022-08-14T06:58:49;22.00;55.00
1686;DHT22;840;47.980;7.830;2022-08-14T07:01:17;22.10;54.70
1686;DHT22;840;47.980;7.830;2022-08-14T07:04:01;22.10;54.20
1686;DHT22;840;47.980;7.830;2022-08-14T07:06:46;22.20;54.50
1686;DHT22;840;47.980;7.830;2022-08-14T07:09:14;22.20;53.80
1686;DHT22;840;47.980;7.830;2022-08-14T07:11:40;22.30;53.50
1686;DHT22;840;47.980;7.830;2022-08-14T07:14:07;22.30;53.50
1686;DHT22;840;47.980;7.830;2022-08-14T07:16:36;22.40;53.60
1686;DHT22;840;47.980;7.830;2022-08-14T07:19:05;22.50;53.60
1686;DHT22;840;47.980;7.830;2022-08-14T07:21:34;22.60;53.60
1686;DHT22;840;47.980;7.830;2022-08-14T07:24:01;22.70;53.40
1686;DHT22;840;47.980;7.830;2022-08-14T07:26:28;22.70;52.70
1686;DHT22;840;47.980;7.830;2022-08-14T07:28:55;22.80;53.40
1686;DHT22;840;47.980;7.830;2022-08-14T07:31:22;22.90;53.80
1686;DHT22;840;47.980;7.830;2022-08-14T07:33:50;22.90;54.00
1686;DHT22;840;47.980;7.830;2022-08-14T07:36:19;23.00;53.60
1686;DHT22;840;47.980;7.830;2022-08-14T07:38:47;23.10;54.00
1686;DHT22;840;47.980;7.830;2022-08-14T07:41:14;23.10;54.20
1686;DHT22;840;47.980;7.830;2022-08-14T07:43:41;23.20;54.50
1686;DHT22;840;47.980;7.830;2022-08-14T07:46:08;23.20;54.30
1686;DHT22;840;47.980;7.830;2022-08-14T07:48:38;23.30;54.70
1686;DHT22;840;47.980;7.830;2022-08-14T07:51:07;23.30;55.00
1686;DHT22;840;47.980;7.830;2022-08-14T07:53:34;23.40;55.20
1686;DHT22;840;47.980;7.830;2022-08-14T07:56:00;23.50;55.00
1686;DHT22;840;47.980;7.830;2022-08-14T07:58:27;23.50;55.10
1686;DHT22;840;47.980;7.830;2022-08-14T08:00:55;23.40;54.50
1686;DHT22;840;47.980;7.830;2022-08-14T08:03:24;23.40;54.60
1686;DHT22;840;47.980;7.830;2022-08-14T08:05:51;23.40;54.30
1686;DHT22;840;47.980;7.830;2022-08-14T08:08:20;23.40;54.20
1686;DHT22;840;47.980;7.830;2022-08-14T08:10:47;23.50;54.10
1686;DHT22;840;47.980;7.830;2022-08-14T08:13:16;23.50;54.20
1686;DHT22;840;47.980;7.830;2022-08-14T08:15:46;23.60;54.20
1686;DHT22;840;47.980;7.830;2022-08-14T08:18:15;23.70;53.60
1686;DHT22;840;47.980;7.830;2022-08-14T08:20:43;23.70;53.10
1686;DHT22;840;47.980;7.830;2022-08-14T08:23:11;23.80;54.00
1686;DHT22;840;47.980;7.830;2022-08-14T08:25:44;23.90;53.40
1686;DHT22;840;47.980;7.830;2022-08-14T08:28:14;24.00;52.60
1686;DHT22;840;47.980;7.830;2022-08-14T08:30:48;24.10;52.70
1686;DHT22;840;47.980;7.830;2022-08-14T08:33:16;24.20;52.20
1686;DHT22;840;47.980;7.830;2022-08-14T08:35:43;24.30;52.20
1686;DHT22;840;47.980;7.830;2022-08-14T08:38:11;24.30;52.60
1686;DHT22;840;47.980;7.830;2022-08-14T08:40:41;24.30;53.10
1686;DHT22;840;47.980;7.830;2022-08-14T08:43:16;24.30;53.30
1686;DHT22;840;47.980;7.830;2022-08-14T08:45:43;24.30;52.90
1686;DHT22;840;47.980;7.830;2022-08-14T08:48:16;24.40;52.60
1686;DHT22;840;47.980;7.830;2022-08-14T08:50:42;24.50;52.30
1686;DHT22;840;47.980;7.830;2022-08-14T08:53:09;24.50;51.90
1686;DHT22;840;47.980;7.830;2022-08-14T08:55:38;24.60;51.80
1686;DHT22;840;47.980;7.830;2022-08-14T08:58:08;24.70;51.70
1686;DHT22;840;47.980;7.830;2022-08-14T09:00:37;24.80;51.20
1686;DHT22;840;47.980;7.830;2022-08-14T09:03:06;24.90;50.20
1686;DHT22;840;47.980;7.830;2022-08-14T09:05:35;25.00;49.60
1686;DHT22;840;47.980;7.830;2022-08-14T09:08:09;25.10;49.70
1686;DHT22;840;47.980;7.830;2022-08-14T09:10:36;25.10;49.70
1686;DHT22;840;47.980;7.830;2022-08-14T09:13:03;25.20;49.60
1686;DHT22;840;47.980;7.830;2022-08-14T09:15:32;25.30;49.90
1686;DHT22;840;47.980;7.830;2022-08-14T09:17:59;25.40;49.50
1686;DHT22;840;47.980;7.830;2022-08-14T09:20:26;25.50;48.50
1686;DHT22;840;47.980;7.830;2022-08-14T09:22:53;25.60;47.60
1686;DHT22;840;47.980;7.830;2022-08-14T09:25:20;25.60;48.10
1686;DHT22;840;47.980;7.830;2022-08-14T09:27:47;25.60;47.20
1686;DHT22;840;47.980;7.830;2022-08-14T09:30:13;25.70;47.60
1686;DHT22;840;47.980;7.830;2022-08-14T09:32:51;25.80;47.10
1686;DHT22;840;47.980;7.830;2022-08-14T09:35:26;26.00;45.00
1686;DHT22;840;47.980;7.830;2022-08-14T09:38:02;26.00;45.10
1686;DHT22;840;47.980;7.830;2022-08-14T09:40:41;26.10;44.90
1686;DHT22;840;47.980;7.830;2022-08-14T09:43:20;26.20;44.20
1686;DHT22;840;47.980;7.830;2022-08-14T09:45:50;26.20;42.80
1686;DHT22;840;47.980;7.830;2022-08-14T09:48:24;26.20;44.50
1686;DHT22;840;47.980;7.830;2022-08-14T09:50:52;26.30;44.80
1686;DHT22;840;47.980;7.830;2022-08-14T09:53:37;26.30;43.70
1686;DHT22;840;47.980;7.830;2022-08-14T09:56:07;26.30;43.50
1686;DHT22;840;47.980;7.830;2022-08-14T09:58:39;26.40;43.20
1686;DHT22;840;47.980;7.830;2022-08-14T10:01:10;26.40;42.30
1686;DHT22;840;47.980;7.830;2022-08-14T10:03:47;26.50;43.00
1686;DHT22;840;47.980;7.830;2022-08-14T10:06:15;26.60;42.70
1686;DHT22;840;47.980;7.830;2022-08-14T10:08:45;26.60;42.50
1686;DHT22;840;47.980;7.830;2022-08-14T10:11:14;26.60;42.70
1686;DHT22;840;47.980;7.830;2022-08-14T10:13:42;26.60;41.20
1686;DHT22;840;47.980;7.830;2022-08-14T10:16:09;26.70;41.60
1686;DHT22;840;47.980;7.830;2022-08-14T10:18:37;26.70;43.40
1686;DHT22;840;47.980;7.830;2022-08-14T10:21:07;26.80;43.80
1686;DHT22;840;47.980;7.830;2022-08-14T10:23:40;26.90;44.70
1686;DHT22;840;47.980;7.830;2022-08-14T10:26:08;27.00;44.60
1686;DHT22;840;47.980;7.830;2022-08-14T10:28:40;27.00;43.20
1686;DHT22;840;47.980;7.830;2022-08-14T10:31:21;27.10;43.10
1686;DHT22;840;47.980;7.830;2022-08-14T10:34:02;27.20;42.40
1686;DHT22;840;47.980;7.830;2022-08-14T10:36:30;27.30;42.80
1686;DHT22;840;47.980;7.830;2022-08-14T10:39:01;27.40;42.60
1686;DHT22;840;47.980;7.830;2022-08-14T10:41:37;27.50;41.70
1686;DHT22;840;47.980;7.830;2022-08-14T10:44:10;27.60;41.00
1686;DHT22;840;47.980;7.830;2022-08-14T10:46:43;27.70;41.30
1686;DHT22;840;47.980;7.830;2022-08-14T10:49:19;27.70;41.40
1686;DHT22;840;47.980;7.830;2022-08-14T10:52:00;27.80;41.70
1686;DHT22;840;47.980;7.830;2022-08-14T10:54:38;27.90;41.30
1686;DHT22;840;47.980;7.830;2022-08-14T10:57:13;28.00;41.40
1686;DHT22;840;47.980;7.830;2022-08-14T10:59:41;28.00;41.30
1686;DHT22;840;47.980;7.830;2022-08-14T11:02:20;28.20;40.80
1686;DHT22;840;47.980;7.830;2022-08-14T11:05:05;28.30;40.40
1686;DHT22;840;47.980;7.830;2022-08-14T11:07:34;28.40;40.20
1686;DHT22;840;47.980;7.830;2022-08-14T11:10:07;28.50;40.30
1686;DHT22;840;47.980;7.830;2022-08-14T11:12:40;28.70;40.40
1686;DHT22;840;47.980;7.830;2022-08-14T11:15:11;28.90;40.50
1686;DHT22;840;47.980;7.830;2022-08-14T11:17:38;29.10;39.80
1686;DHT22;840;47.980;7.830;2022-08-14T11:20:08;28.90;40.00
1686;DHT22;840;47.980;7.830;2022-08-14T11:22:37;28.90;40.80
1686;DHT22;840;47.980;7.830;2022-08-14T11:25:08;29.10;41.20
1686;DHT22;840;47.980;7.830;2022-08-14T11:27:37;29.30;41.30
1686;DHT22;840;47.980;7.830;2022-08-14T11:30:07;29.40;41.60
1686;DHT22;840;47.980;7.830;2022-08-14T11:32:34;29.50;42.60
1686;DHT22;840;47.980;7.830;2022-08-14T11:35:03;29.60;44.50
1686;DHT22;840;47.980;7.830;2022-08-14T11:37:31;29.80;46.20
1686;DHT22;840;47.980;7.830;2022-08-14T11:39:59;29.80;46.40
1686;DHT22;840;47.980;7.830;2022-08-14T11:42:28;29.80;46.80
1686;DHT22;840;47.980;7.830;2022-08-14T11:45:01;29.90;48.00
1686;DHT22;840;47.980;7.830;2022-08-14T11:47:32;30.00;49.40
1686;DHT22;840;47.980;7.830;2022-08-14T11:49:58;30.00;49.90
1686;DHT22;840;47.980;7.830;2022-08-14T11:52:34;30.00;50.70
1686;DHT22;840;47.980;7.830;2022-08-14T11:55:10;30.00;51.50
1686;DHT22;840;47.980;7.830;2022-08-14T11:57:38;30.00;52.20
1686;DHT22;840;47.980;7.830;2022-08-14T12:00:07;29.90;52.20
1686;DHT22;840;47.980;7.830;2022-08-14T12:02:35;29.90;52.30
1686;DHT22;840;47.980;7.830;2022-08-14T12:05:03;29.90;52.20
1686;DHT22;840;47.980;7.830;2022-08-14T12:07:29;29.90;52.60
1686;DHT22;840;47.980;7.830;2022-08-14T12:09:59;29.90;53.40
1686;DHT22;840;47.980;7.830;2022-08-14T12:12:27;29.90;54.30
1686;DHT22;840;47.980;7.830;2022-08-14T12:15:00;29.90;54.40
1686;DHT22;840;47.980;7.830;2022-08-14T12:17:27;29.90;55.00
1686;DHT22;840;47.980;7.830;2022-08-14T12:19:59;29.80;55.70
1686;DHT22;840;47.980;7.830;2022-08-14T12:22:34;29.60;55.00
1686;DHT22;840;47.980;7.830;2022-08-14T12:25:04;29.50;55.00
1686;DHT22;840;47.980;7.830;2022-08-14T12:27:39;29.50;55.00
1686;DHT22;840;47.980;7.830;2022-08-14T12:30:08;29.50;54.90
1686;DHT22;840;47.980;7.830;2022-08-14T12:32:42;29.60;55.50
1686;DHT22;840;47.980;7.830;2022-08-14T12:35:12;29.70;54.80
1686;DHT22;840;47.980;7.830;2022-08-14T12:37:46;29.90;54.90
1686;DHT22;840;47.980;7.830;2022-08-14T12:40:16;30.10;53.80
1686;DHT22;840;47.980;7.830;2022-08-14T12:42:43;30.30;54.10
1686;DHT22;840;47.980;7.830;2022-08-14T12:45:11;30.40;53.80
1686;DHT22;840;47.980;7.830;2022-08-14T12:47:39;30.50;53.30
1686;DHT22;840;47.980;7.830;2022-08-14T12:50:07;30.50;53.70
1686;DHT22;840;47.980;7.830;2022-08-14T12:52:36;30.60;53.70
1686;DHT22;840;47.980;7.830;2022-08-14T12:55:06;30.80;53.60
1686;DHT22;840;47.980;7.830;2022-08-14T12:57:38;31.10;53.10
1686;DHT22;840;47.980;7.830;2022-08-14T13:00:09;31.30;52.40
1686;DHT22;840;47.980;7.830;2022-08-14T13:02:40;31.60;51.20
1686;DHT22;840;47.980;7.830;2022-08-14T13:05:08;31.70;51.10
1686;DHT22;840;47.980;7.830;2022-08-14T13:07:35;31.80;50.20
1686;DHT22;840;47.980;7.830;2022-08-14T13:10:07;31.90;49.90
1686;DHT22;840;47.980;7.830;2022-08-14T13:12:37;31.90;49.30
1686;DHT22;840;47.980;7.830;2022-08-14T13:15:07;31.90;44.60
1686;DHT22;840;47.980;7.830;2022-08-14T13:17:40;31.50;43.70
1686;DHT22;840;47.980;7.830;2022-08-14T13:20:11;31.30;43.40
1686;DHT22;840;47.980;7.830;2022-08-14T13:22:39;31.00;42.90
1686;DHT22;840;47.980;7.830;2022-08-14T13:25:11;30.80;42.40
1686;DHT22;840;47.980;7.830;2022-08-14T13:27:41;30.70;43.10
1686;DHT22;840;47.980;7.830;2022-08-14T13:30:10;30.80;43.00
1686;DHT22;840;47.980;7.830;2022-08-14T13:32:38;30.90;42.70
1686;DHT22;840;47.980;7.830;2022-08-14T13:35:08;31.00;41.10
1686;DHT22;840;47.980;7.830;2022-08-14T13:37:35;30.90;40.20
1686;DHT22;840;47.980;7.830;2022-08-14T13:40:04;30.90;40.50
1686;DHT22;840;47.980;7.830;2022-08-14T13:42:31;30.90;41.30
1686;DHT22;840;47.980;7.830;2022-08-14T13:45:01;31.10;42.40
1686;DHT22;840;47.980;7.830;2022-08-14T13:47:29;31.10;41.10
1686;DHT22;840;47.980;7.830;2022-08-14T13:50:05;30.90;40.80
1686;DHT22;840;47.980;7.830;2022-08-14T13:52:36;30.70;41.30
1686;DHT22;840;47.980;7.830;2022-08-14T13:55:05;30.40;41.60
1686;DHT22;840;47.980;7.830;2022-08-14T13:57:33;30.10;41.70
1686;DHT22;840;47.980;7.830;2022-08-14T14:00:07;29.90;42.40
1686;DHT22;840;47.980;7.830;2022-08-14T14:02:36;29.70;42.80
1686;DHT22;840;47.980;7.830;2022-08-14T14:05:05;29.60;43.10
1686;DHT22;840;47.980;7.830;2022-08-14T14:07:34;29.60;43.30
1686;DHT22;840;47.980;7.830;2022-08-14T14:10:04;29.40;43.00
1686;DHT22;840;47.980;7.830;2022-08-14T14:12:33;29.50;43.50
1686;DHT22;840;47.980;7.830;2022-08-14T14:15:04;29.60;44.00
1686;DHT22;840;47.980;7.830;2022-08-14T14:17:33;29.80;42.80
1686;DHT22;840;47.980;7.830;2022-08-14T14:20:00;30.00;42.60
1686;DHT22;840;47.980;7.830;2022-08-14T14:22:27;30.10;41.80
1686;DHT22;840;47.980;7.830;2022-08-14T14:24:54;30.20;41.80
1686;DHT22;840;47.980;7.830;2022-08-14T14:27:22;30.30;41.60
1686;DHT22;840;47.980;7.830;2022-08-14T14:29:55;30.30;42.10
1686;DHT22;840;47.980;7.830;2022-08-14T14:32:29;30.50;41.00
1686;DHT22;840;47.980;7.830;2022-08-14T14:34:59;30.50;41.80
1686;DHT22;840;47.980;7.830;2022-08-14T14:37:28;30.60;41.60
1686;DHT22;840;47.980;7.830;2022-08-14T14:39:56;30.70;41.60
1686;DHT22;840;47.980;7.830;2022-08-14T14:42:25;30.70;41.40
1686;DHT22;840;47.980;7.830;2022-08-14T14:44:55;30.60;41.10
1686;DHT22;840;47.980;7.830;2022-08-14T14:47:27;30.50;41.30
1686;DHT22;840;47.980;7.830;2022-08-14T14:49:56;30.30;40.90
1686;DHT22;840;47.980;7.830;2022-08-14T14:52:23;30.30;41.40
1686;DHT22;840;47.980;7.830;2022-08-14T14:54:50;30.30;41.10
1686;DHT22;840;47.980;7.830;2022-08-14T14:57:17;30.20;40.60
1686;DHT22;840;47.980;7.830;2022-08-14T14:59:45;30.10;40.80
1686;DHT22;840;47.980;7.830;2022-08-14T15:02:35;30.10;40.80
1686;DHT22;840;47.980;7.830;2022-08-14T15:05:03;30.00;40.70
1686;DHT22;840;47.980;7.830;2022-08-14T15:07:30;30.10;41.40
1686;DHT22;840;47.980;7.830;2022-08-14T15:09:57;30.10;40.30
1686;DHT22;840;47.980;7.830;2022-08-14T15:12:24;30.10;39.80
1686;DHT22;840;47.980;7.830;2022-08-14T15:14:51;30.10;39.90
1686;DHT22;840;47.980;7.830;2022-08-14T15:17:18;30.10;40.50
1686;DHT22;840;47.980;7.830;2022-08-14T15:19:48;30.10;40.80
1686;DHT22;840;47.980;7.830;2022-08-14T15:22:15;30.00;41.40
1686;DHT22;840;47.980;7.830;2022-08-14T15:24:43;30.00;41.60
1686;DHT22;840;47.980;7.830;2022-08-14T15:27:09;30.00;41.70
1686;DHT22;840;47.980;7.830;2022-08-14T15:29:37;29.90;41.10
1686;DHT22;840;47.980;7.830;2022-08-14T15:32:06;29.90;42.00
1686;DHT22;840;47.980;7.830;2022-08-14T15:34:32;29.80;42.80
1686;DHT22;840;47.980;7.830;2022-08-14T15:37:03;29.70;43.00
1686;DHT22;840;47.980;7.830;2022-08-14T15:39:30;29.70;43.20
1686;DHT22;840;47.980;7.830;2022-08-14T15:41:57;29.60;43.70
1686;DHT22;840;47.980;7.830;2022-08-14T15:44:26;29.50;44.30
1686;DHT22;840;47.980;7.830;2022-08-14T15:46:54;29.50;44.40
1686;DHT22;840;47.980;7.830;2022-08-14T15:49:21;29.30;44.90
1686;DHT22;840;47.980;7.830;2022-08-14T15:51:48;29.20;45.60
1686;DHT22;840;47.980;7.830;2022-08-14T15:54:17;29.00;46.00
1686;DHT22;840;47.980;7.830;2022-08-14T15:56:44;28.90;46.80
1686;DHT22;840;47.980;7.830;2022-08-14T15:59:11;28.70;47.80
1686;DHT22;840;47.980;7.830;2022-08-14T16:01:38;28.60;48.50
1686;DHT22;840;47.980;7.830;2022-08-14T16:04:04;28.50;49.30
1686;DHT22;840;47.980;7.830;2022-08-14T16:06:30;28.30;49.70
1686;DHT22;840;47.980;7.830;2022-08-14T16:08:58;28.30;50.40
1686;DHT22;840;47.980;7.830;2022-08-14T16:11:26;28.30;51.00
1686;DHT22;840;47.980;7.830;2022-08-14T16:13:53;28.30;50.90
1686;DHT22;840;47.980;7.830;2022-08-14T16:16:23;28.20;50.90
1686;DHT22;840;47.980;7.830;2022-08-14T16:18:51;28.20;50.80
1686;DHT22;840;47.980;7.830;2022-08-14T16:21:23;28.20;50.00
1686;DHT22;840;47.980;7.830;2022-08-14T16:23:54;28.20;49.40
1686;DHT22;840;47.980;7.830;2022-08-14T16:26:23;28.10;49.30
1686;DHT22;840;47.980;7.830;2022-08-14T16:28:54;28.10;49.00
1686;DHT22;840;47.980;7.830;2022-08-14T16:31:28;28.00;49.20